Terminal Aerodrome Forecast
Issued by NWS

Current Version | Previous Version | Text Only | Print | Product List | Glossary On
Versions: 1 2 3 4 5 6 7 8 9 10 11 12 13 14 15
000
FTUS41 KCAR 012346
TAFHUL
TAF
KHUL 012346Z 0200/0224 VRB03KT P6SM FEW250
     FM020900 21004KT 6SM BR SKC
     FM021800 23007KT P6SM VCTS SCT030 BKN060CB
     FM022200 29007KT P6SM SCT250=

USA.gov is the U.S. government's official web portal to all federal, state and local government web resources and services.